Time;durP1;ratioP1;P1;durP2;ratioP2;P2;SDS_P1;SDS_P2;PMS_P1;PMS_P2;Temp;Humidity;BMP_temperature;BMP_pressure;BME280_temperature;BME280_humidity;BME280_pressure;Samples;Min_cycle;Max_cycle;Signal;HPM_P1;HPM_P2
2023/04/05 00:01:25;;;;;;;12.55;7.63;;;;;;;;;;4994781;28;20034;-69
2023/04/05 00:03:57;;;;;;;9.80;7.22;;;;;;;;;;4995776;28;20026;-69
2023/04/05 00:06:30;;;;;;;8.95;7.00;;;;;;;;;;4987163;28;20033;-68
2023/04/05 00:08:58;;;;;;;9.18;6.70;;;;;;;;;;4988746;28;20385;-67
2023/04/05 00:11:24;;;;;;;7.60;6.07;;;;;;;;;;4995468;28;20424;-68
2023/04/05 00:13:50;;;;;;;9.77;7.00;;;;;;;;;;4991143;28;20476;-68
2023/04/05 00:16:17;;;;;;;9.35;6.90;;;;;;;;;;4994075;28;20026;-68
2023/04/05 00:18:44;;;;;;;8.43;6.32;;;;;;;;;;4994396;28;20034;-68
2023/04/05 00:21:13;;;;;;;7.47;6.40;;;;;;;;;;4995152;28;20018;-68
2023/04/05 00:23:40;;;;;;;10.80;7.30;;;;;;;;;;4995651;28;20049;-68
2023/04/05 00:26:07;;;;;;;10.68;6.97;;;;;;;;;;4995429;28;20106;-68
2023/04/05 00:28:34;;;;;;;9.55;6.90;;;;;;;;;;4995108;28;20044;-69
2023/04/05 00:30:59;;;;;;;9.85;7.47;;;;;;;;;;4993738;28;20089;-68
2023/04/05 00:33:25;;;;;;;10.55;7.70;;;;;;;;;;4991915;28;20125;-69
2023/04/05 00:35:51;;;;;;;11.75;7.53;;;;;;;;;;4990601;28;20023;-69
2023/04/05 00:38:16;;;;;;;10.50;7.03;;;;;;;;;;4991961;28;20081;-68
2023/04/05 00:40:42;;;;;;;10.38;7.30;;;;;;;;;;4993759;28;20030;-68
2023/04/05 00:43:09;;;;;;;10.25;7.25;;;;;;;;;;4993706;28;20030;-68
2023/04/05 00:45:35;;;;;;;10.43;7.25;;;;;;;;;;4994313;28;20022;-68
2023/04/05 00:48:01;;;;;;;7.75;6.78;;;;;;;;;;4994822;28;20031;-68
2023/04/05 00:50:29;;;;;;;9.02;7.13;;;;;;;;;;4994885;28;20057;-68
2023/04/05 00:52:56;;;;;;;10.40;7.38;;;;;;;;;;4993400;28;20117;-68
2023/04/05 00:55:22;;;;;;;9.70;7.47;;;;;;;;;;4993536;28;20038;-68
2023/04/05 00:57:48;;;;;;;8.13;6.80;;;;;;;;;;4993859;28;20030;-69
2023/04/05 01:00:15;;;;;;;8.88;6.63;;;;;;;;;;4995010;28;20045;-69
2023/04/05 01:02:50;;;;;;;11.23;7.22;;;;;;;;;;4993424;28;20026;-69
2023/04/05 01:05:30;;;;;;;9.13;7.68;;;;;;;;;;4993321;28;20121;-68
2023/04/05 01:08:15;;;;;;;10.10;7.20;;;;;;;;;;4994822;28;20294;-68
2023/04/05 01:10:45;;;;;;;8.73;6.93;;;;;;;;;;4993188;28;20061;-69
2023/04/05 01:13:11;;;;;;;10.18;6.82;;;;;;;;;;4994752;28;20045;-68
2023/04/05 01:15:37;;;;;;;10.63;7.75;;;;;;;;;;4993189;28;20026;-68
2023/04/05 01:18:03;;;;;;;9.20;7.00;;;;;;;;;;4993133;28;20034;-68
2023/04/05 01:20:36;;;;;;;9.15;6.70;;;;;;;;;;4994008;28;20080;-68
2023/04/05 01:23:12;;;;;;;8.50;6.55;;;;;;;;;;4993032;28;20041;-69
2023/04/05 01:26:00;;;;;;;8.98;6.45;;;;;;;;;;4994109;28;20500;-69
2023/04/05 01:28:29;;;;;;;8.27;6.22;;;;;;;;;;4994306;28;20092;-69
2023/04/05 01:31:11;;;;;;;9.48;6.75;;;;;;;;;;4992820;28;20174;-68
2023/04/05 01:34:05;;;;;;;10.23;7.40;;;;;;;;;;4992687;28;20129;-69
2023/04/05 01:36:47;;;;;;;9.90;7.03;;;;;;;;;;4992632;28;20069;-69
2023/04/05 01:39:16;;;;;;;13.15;8.05;;;;;;;;;;4995014;28;20039;-69
2023/04/05 01:41:41;;;;;;;10.98;7.20;;;;;;;;;;4990032;28;20098;-69
2023/04/05 01:44:07;;;;;;;10.07;7.80;;;;;;;;;;4986520;28;20121;-68
2023/04/05 01:46:33;;;;;;;10.75;8.35;;;;;;;;;;4992877;28;20058;-68
2023/04/05 01:48:59;;;;;;;11.73;8.77;;;;;;;;;;4994172;28;20034;-68
2023/04/05 01:51:25;;;;;;;10.98;8.02;;;;;;;;;;4992601;28;20097;-68
2023/04/05 01:53:51;;;;;;;14.27;8.23;;;;;;;;;;4992665;28;20030;-69
2023/04/05 01:56:16;;;;;;;10.23;7.82;;;;;;;;;;4991436;28;20023;-69
2023/04/05 01:58:42;;;;;;;9.65;8.07;;;;;;;;;;4992859;28;20042;-68
2023/04/05 02:01:08;;;;;;;12.63;9.18;;;;;;;;;;4992315;28;20037;-69
2023/04/05 02:03:34;;;;;;;12.77;9.73;;;;;;;;;;4992491;28;20522;-69
2023/04/05 02:06:00;;;;;;;12.02;8.77;;;;;;;;;;4993687;28;20102;-69
2023/04/05 02:08:26;;;;;;;13.35;9.55;;;;;;;;;;4993432;28;20100;-69
2023/04/05 02:10:52;;;;;;;12.95;9.40;;;;;;;;;;4989200;28;20027;-69
2023/04/05 02:13:20;;;;;;;13.05;9.88;;;;;;;;;;5012166;28;20045;-69
2023/04/05 02:15:48;;;;;;;15.75;9.85;;;;;;;;;;4998392;28;20113;-69
2023/04/05 02:18:21;;;;;;;12.60;9.98;;;;;;;;;;4991982;28;20041;-69
2023/04/05 02:20:51;;;;;;;12.60;9.48;;;;;;;;;;4991899;28;20393;-69
2023/04/05 02:23:20;;;;;;;13.55;9.95;;;;;;;;;;4991924;28;20149;-69
2023/04/05 02:25:46;;;;;;;14.90;9.73;;;;;;;;;;4991873;28;20069;-69
2023/04/05 02:28:11;;;;;;;11.82;9.73;;;;;;;;;;4991919;28;20101;-69
2023/04/05 02:30:37;;;;;;;13.70;9.43;;;;;;;;;;5012957;28;20077;-69
2023/04/05 02:33:03;;;;;;;14.05;9.50;;;;;;;;;;5000029;28;20033;-69
2023/04/05 02:35:31;;;;;;;16.02;10.18;;;;;;;;;;4991581;28;20049;-69
2023/04/05 02:37:56;;;;;;;13.30;9.55;;;;;;;;;;4992637;28;20053;-68
2023/04/05 02:40:22;;;;;;;14.35;9.68;;;;;;;;;;4991606;28;20034;-69
2023/04/05 02:42:48;;;;;;;13.50;9.43;;;;;;;;;;4991719;28;20025;-68
2023/04/05 02:45:13;;;;;;;10.82;8.18;;;;;;;;;;4992998;28;20092;-68
2023/04/05 02:47:39;;;;;;;12.48;9.05;;;;;;;;;;4991772;28;20054;-68
2023/04/05 02:50:05;;;;;;;11.02;8.80;;;;;;;;;;4991536;28;20053;-68
2023/04/05 02:52:36;;;;;;;13.80;8.52;;;;;;;;;;4991540;28;20480;-68
2023/04/05 02:55:06;;;;;;;10.57;7.70;;;;;;;;;;4995072;28;20038;-68
2023/04/05 02:57:33;;;;;;;11.23;7.70;;;;;;;;;;4998560;28;20030;-69
2023/04/05 03:00:07;;;;;;;11.55;8.80;;;;;;;;;;5000350;28;20026;-69
2023/04/05 03:02:33;;;;;;;11.85;8.65;;;;;;;;;;4991498;28;20125;-69
2023/04/05 03:05:01;;;;;;;12.05;8.73;;;;;;;;;;5001276;28;20026;-70
2023/04/05 03:07:29;;;;;;;10.63;7.75;;;;;;;;;;4999057;28;20033;-70
2023/04/05 03:09:55;;;;;;;11.70;7.50;;;;;;;;;;4993951;28;20074;-68
2023/04/05 03:12:21;;;;;;;9.05;7.00;;;;;;;;;;4990705;28;20109;-68
2023/04/05 03:14:48;;;;;;;10.20;7.03;;;;;;;;;;4999604;28;20491;-68
2023/04/05 03:17:20;;;;;;;10.07;7.43;;;;;;;;;;4991215;28;20037;-68
2023/04/05 03:19:55;;;;;;;12.98;8.65;;;;;;;;;;4992586;28;20046;-68
2023/04/05 03:22:24;;;;;;;10.30;7.57;;;;;;;;;;4995222;28;20065;-68
2023/04/05 03:24:51;;;;;;;11.57;7.80;;;;;;;;;;4995044;28;20037;-68
2023/04/05 03:27:18;;;;;;;14.18;8.23;;;;;;;;;;4994828;28;20031;-69
2023/04/05 03:30:07;;;;;;;10.75;7.65;;;;;;;;;;4994008;28;20018;-68
2023/04/05 03:32:39;;;;;;;13.82;8.52;;;;;;;;;;4994852;28;20392;-68
2023/04/05 03:35:25;;;;;;;14.30;8.25;;;;;;;;;;5002905;28;20041;-69
2023/04/05 03:37:51;;;;;;;19.55;7.20;;;;;;;;;;4994970;28;20042;-68
2023/04/05 03:40:17;;;;;;;15.30;7.68;;;;;;;;;;4993075;28;20022;-69
2023/04/05 03:42:44;;;;;;;21.98;7.60;;;;;;;;;;4995699;28;20030;-69
2023/04/05 03:45:10;;;;;;;16.80;7.78;;;;;;;;;;5011084;28;20054;-68
2023/04/05 03:47:37;;;;;;;20.27;7.38;;;;;;;;;;4994540;28;20307;-68
2023/04/05 03:50:05;;;;;;;12.95;7.10;;;;;;;;;;4994626;28;20069;-69
2023/04/05 03:52:31;;;;;;;24.58;8.05;;;;;;;;;;4996067;28;20524;-68
2023/04/05 03:54:58;;;;;;;21.48;8.02;;;;;;;;;;4994585;28;20109;-69
2023/04/05 03:57:27;;;;;;;26.83;10.27;;;;;;;;;;4994396;28;20039;-69
2023/04/05 03:59:55;;;;;;;25.88;9.40;;;;;;;;;;4997129;28;20070;-69
2023/04/05 04:02:22;;;;;;;16.92;8.60;;;;;;;;;;4991548;28;20042;-69
2023/04/05 04:04:48;;;;;;;20.63;10.30;;;;;;;;;;4994015;28;20030;-69
2023/04/05 04:07:15;;;;;;;15.43;7.65;;;;;;;;;;4978036;28;20044;-68
2023/04/05 04:09:40;;;;;;;24.83;9.48;;;;;;;;;;4993941;28;20361;-67
2023/04/05 04:12:08;;;;;;;21.40;9.13;;;;;;;;;;4993691;28;20514;-68
2023/04/05 04:14:39;;;;;;;27.08;8.35;;;;;;;;;;4993854;28;20026;-70
2023/04/05 04:17:45;;;;;;;15.95;8.45;;;;;;;;;;4995153;28;20214;-69
2023/04/05 04:20:31;;;;;;;23.88;8.73;;;;;;;;;;4983621;28;20074;-69
2023/04/05 04:23:09;;;;;;;26.25;8.77;;;;;;;;;;4995021;28;20041;-69
2023/04/05 04:25:54;;;;;;;22.20;9.05;;;;;;;;;;4995370;28;20054;-68
2023/04/05 04:28:47;;;;;;;22.23;8.20;;;;;;;;;;4993599;28;20121;-68
2023/04/05 04:31:33;;;;;;;14.88;7.45;;;;;;;;;;4990341;28;20041;-68
2023/04/05 04:34:33;;;;;;;22.00;7.43;;;;;;;;;;4961225;28;20042;-67
2023/04/05 04:37:16;;;;;;;11.13;7.15;;;;;;;;;;4993318;28;20148;-68
2023/04/05 04:39:47;;;;;;;12.25;6.43;;;;;;;;;;4994821;28;20105;-68
2023/04/05 04:42:37;;;;;;;8.95;5.60;;;;;;;;;;4994932;28;20061;-68
2023/04/05 04:45:33;;;;;;;23.40;6.82;;;;;;;;;;4991407;28;20046;-68
2023/04/05 04:48:19;;;;;;;21.95;8.52;;;;;;;;;;4992870;28;20042;-68
2023/04/05 04:50:53;;;;;;;20.27;8.18;;;;;;;;;;4994363;28;20563;-68
2023/04/05 04:53:21;;;;;;;16.45;8.55;;;;;;;;;;4993069;28;20073;-69
2023/04/05 04:55:49;;;;;;;18.23;9.18;;;;;;;;;;4995464;28;20104;-68
2023/04/05 04:58:16;;;;;;;18.20;9.00;;;;;;;;;;5005491;28;20370;-69
2023/04/05 05:00:47;;;;;;;26.35;9.27;;;;;;;;;;5000196;28;20439;-68
2023/04/05 05:03:13;;;;;;;24.25;9.23;;;;;;;;;;4994163;28;20042;-68
2023/04/05 05:05:46;;;;;;;11.93;8.13;;;;;;;;;;4994016;28;20033;-68
2023/04/05 05:08:12;;;;;;;41.28;10.55;;;;;;;;;;4992356;28;20046;-69
2023/04/05 05:10:40;;;;;;;18.38;7.32;;;;;;;;;;4992495;28;20026;-68
2023/04/05 05:13:06;;;;;;;29.63;8.02;;;;;;;;;;4993432;28;20538;-70
2023/04/05 05:15:31;;;;;;;23.10;8.63;;;;;;;;;;4993473;28;20034;-69
2023/04/05 05:17:57;;;;;;;19.20;7.45;;;;;;;;;;4993473;28;20081;-69
2023/04/05 05:20:26;;;;;;;9.10;5.85;;;;;;;;;;4991898;28;20057;-69
2023/04/05 05:22:51;;;;;;;8.68;6.07;;;;;;;;;;4994069;28;20423;-69
2023/04/05 05:25:17;;;;;;;13.65;6.57;;;;;;;;;;4992067;28;20022;-68
2023/04/05 05:27:43;;;;;;;11.82;6.25;;;;;;;;;;4993278;28;20069;-70
2023/04/05 05:30:09;;;;;;;7.65;6.03;;;;;;;;;;4993385;28;20109;-70
2023/04/05 05:32:35;;;;;;;11.27;7.63;;;;;;;;;;4993435;28;20113;-70
2023/04/05 05:35:01;;;;;;;17.52;8.43;;;;;;;;;;4993374;28;20118;-70
2023/04/05 05:37:31;;;;;;;16.50;7.60;;;;;;;;;;4993838;28;20066;-71
2023/04/05 05:39:57;;;;;;;17.45;7.88;;;;;;;;;;4989710;28;20044;-71
2023/04/05 05:42:23;;;;;;;13.50;6.63;;;;;;;;;;4998365;28;20032;-70
2023/04/05 05:44:49;;;;;;;22.38;7.28;;;;;;;;;;5006225;28;20029;-70
2023/04/05 05:47:15;;;;;;;11.30;6.25;;;;;;;;;;4996200;28;20435;-69
2023/04/05 05:49:40;;;;;;;11.90;7.20;;;;;;;;;;4995677;28;20027;-71
2023/04/05 05:52:06;;;;;;;9.38;6.60;;;;;;;;;;4995540;28;20407;-70
2023/04/05 05:54:32;;;;;;;25.45;7.20;;;;;;;;;;4992776;28;20205;-70
2023/04/05 05:56:57;;;;;;;15.00;6.72;;;;;;;;;;5007892;28;20507;-70
2023/04/05 05:59:24;;;;;;;12.27;6.05;;;;;;;;;;4992608;28;20033;-71
2023/04/05 06:01:50;;;;;;;11.55;6.90;;;;;;;;;;4992234;28;20035;-71
2023/04/05 06:04:16;;;;;;;25.35;7.95;;;;;;;;;;4992194;28;20034;-70
2023/04/05 06:06:45;;;;;;;17.33;7.07;;;;;;;;;;4992889;28;20023;-69
2023/04/05 06:09:11;;;;;;;20.05;7.43;;;;;;;;;;4992376;28;20496;-70
2023/04/05 06:11:36;;;;;;;9.82;5.78;;;;;;;;;;4974877;28;20141;-71
2023/04/05 06:14:02;;;;;;;15.13;7.25;;;;;;;;;;4990164;28;20050;-71
2023/04/05 06:16:29;;;;;;;21.75;7.60;;;;;;;;;;4995552;28;20145;-71
2023/04/05 06:18:56;;;;;;;12.65;7.47;;;;;;;;;;4996234;28;20040;-71
2023/04/05 06:21:22;;;;;;;7.20;6.13;;;;;;;;;;4993523;28;20060;-71
2023/04/05 06:23:48;;;;;;;8.27;5.47;;;;;;;;;;4993679;28;20030;-70
2023/04/05 06:26:19;;;;;;;11.52;6.55;;;;;;;;;;4992491;28;20022;-72
2023/04/05 06:28:48;;;;;;;10.05;5.82;;;;;;;;;;4991004;28;20042;-69
2023/04/05 06:31:16;;;;;;;10.18;6.97;;;;;;;;;;5002821;28;20018;-70
2023/04/05 06:33:43;;;;;;;7.60;5.78;;;;;;;;;;4995557;28;20038;-71
2023/04/05 06:36:10;;;;;;;10.85;6.22;;;;;;;;;;5001087;28;20033;-71
2023/04/05 06:38:35;;;;;;;10.93;6.68;;;;;;;;;;5004782;28;20038;-73
2023/04/05 06:41:01;;;;;;;7.55;5.63;;;;;;;;;;4993542;28;20444;-70
2023/04/05 06:43:27;;;;;;;9.85;6.13;;;;;;;;;;4992337;28;20030;-71
2023/04/05 06:45:57;;;;;;;10.40;5.85;;;;;;;;;;4992087;28;20052;-70
2023/04/05 06:48:23;;;;;;;16.20;7.10;;;;;;;;;;4990633;28;20512;-69
2023/04/05 06:50:59;;;;;;;11.00;5.93;;;;;;;;;;5002542;28;20515;-70
2023/04/05 06:53:26;;;;;;;10.80;6.00;;;;;;;;;;4994161;28;20358;-72
2023/04/05 06:55:57;;;;;;;22.45;7.57;;;;;;;;;;4992019;28;20033;-70
2023/04/05 06:58:25;;;;;;;13.13;6.75;;;;;;;;;;4991963;28;20027;-71
2023/04/05 07:00:51;;;;;;;10.48;6.10;;;;;;;;;;4995581;28;20042;-70
2023/04/05 07:03:17;;;;;;;13.68;5.43;;;;;;;;;;4996992;28;20452;-71
2023/04/05 07:05:53;;;;;;;6.90;5.20;;;;;;;;;;4996411;28;20037;-72
2023/04/05 07:08:20;;;;;;;11.07;4.78;;;;;;;;;;4993463;28;20506;-72
2023/04/05 07:10:47;;;;;;;9.07;6.20;;;;;;;;;;4998317;28;20049;-71
2023/04/05 07:13:13;;;;;;;14.05;5.18;;;;;;;;;;5016403;28;20112;-71
2023/04/05 07:15:38;;;;;;;6.90;5.22;;;;;;;;;;4999604;28;20488;-71
2023/04/05 07:18:04;;;;;;;8.27;5.45;;;;;;;;;;5002812;28;20483;-72
2023/04/05 07:20:30;;;;;;;5.30;4.28;;;;;;;;;;4997778;28;20093;-70
2023/04/05 07:22:57;;;;;;;7.35;4.97;;;;;;;;;;4985251;28;20033;-70
2023/04/05 07:25:23;;;;;;;7.72;5.70;;;;;;;;;;4995381;28;20022;-71
2023/04/05 07:27:49;;;;;;;10.88;5.53;;;;;;;;;;4989369;28;20041;-71
2023/04/05 07:30:14;;;;;;;9.68;4.50;;;;;;;;;;4991439;28;20038;-71
2023/04/05 07:32:40;;;;;;;6.43;4.22;;;;;;;;;;4993882;28;20457;-71
2023/04/05 07:35:07;;;;;;;8.95;4.88;;;;;;;;;;5001877;28;20044;-71
2023/04/05 07:37:34;;;;;;;6.80;4.35;;;;;;;;;;5000831;28;20042;-72
2023/04/05 07:40:00;;;;;;;7.05;4.65;;;;;;;;;;4997918;28;20041;-71
2023/04/05 07:42:27;;;;;;;11.90;4.60;;;;;;;;;;4991337;28;20097;-70
2023/04/05 07:44:52;;;;;;;14.98;4.43;;;;;;;;;;4999417;28;20049;-69
2023/04/05 07:47:18;;;;;;;8.02;4.47;;;;;;;;;;4990155;28;20084;-70
2023/04/05 07:49:44;;;;;;;7.07;3.85;;;;;;;;;;4996670;28;20066;-70
2023/04/05 07:52:12;;;;;;;7.22;4.05;;;;;;;;;;4999282;28;20205;-71
2023/04/05 07:54:40;;;;;;;11.63;4.25;;;;;;;;;;4994380;28;20077;-70
2023/04/05 07:57:06;;;;;;;8.38;4.35;;;;;;;;;;4986081;28;20484;-72
2023/04/05 07:59:32;;;;;;;5.35;4.10;;;;;;;;;;5009286;28;20042;-70
2023/04/05 08:01:57;;;;;;;5.65;3.90;;;;;;;;;;4978501;28;20145;-71
2023/04/05 08:04:25;;;;;;;9.43;3.70;;;;;;;;;;5005962;28;20041;-71
2023/04/05 08:06:51;;;;;;;13.55;4.78;;;;;;;;;;4991252;28;20095;-70
2023/04/05 08:09:17;;;;;;;5.65;3.97;;;;;;;;;;5003177;28;20513;-70
2023/04/05 08:11:43;;;;;;;8.50;3.40;;;;;;;;;;4999935;28;20034;-71
2023/04/05 08:14:09;;;;;;;4.13;3.45;;;;;;;;;;4996503;28;20026;-71
2023/04/05 08:16:35;;;;;;;4.88;3.35;;;;;;;;;;4994678;28;20034;-71
2023/04/05 08:19:00;;;;;;;5.88;3.35;;;;;;;;;;4994816;28;20377;-70
2023/04/05 08:21:26;;;;;;;6.57;3.60;;;;;;;;;;4990476;28;20042;-69
2023/04/05 08:23:52;;;;;;;4.20;3.30;;;;;;;;;;4993502;28;20026;-70
2023/04/05 08:26:18;;;;;;;7.32;3.75;;;;;;;;;;4987701;28;20080;-72
2023/04/05 08:28:45;;;;;;;5.47;3.25;;;;;;;;;;4991817;28;20026;-71
2023/04/05 08:31:11;;;;;;;5.88;3.40;;;;;;;;;;4994517;28;20030;-70
2023/04/05 08:33:36;;;;;;;5.90;3.00;;;;;;;;;;4992381;28;20476;-70
2023/04/05 08:36:07;;;;;;;8.60;3.85;;;;;;;;;;4991699;28;20038;-72
2023/04/05 08:38:32;;;;;;;3.03;2.30;;;;;;;;;;4989466;28;20085;-70
2023/04/05 08:41:07;;;;;;;3.65;1.80;;;;;;;;;;4990196;28;20038;-71
2023/04/05 08:43:46;;;;;;;7.53;2.42;;;;;;;;;;5000355;28;20693;-71
2023/04/05 08:46:15;;;;;;;3.20;1.95;;;;;;;;;;4993542;28;20041;-70
2023/04/05 08:48:41;;;;;;;4.18;2.45;;;;;;;;;;4991956;28;20390;-70
2023/04/05 08:51:08;;;;;;;5.50;2.63;;;;;;;;;;4991144;28;20120;-71
2023/04/05 08:53:34;;;;;;;3.83;1.80;;;;;;;;;;4993849;28;20045;-71
2023/04/05 08:56:01;;;;;;;3.83;1.70;;;;;;;;;;4993394;28;20447;-70
2023/04/05 08:58:27;;;;;;;4.03;1.80;;;;;;;;;;4992991;28;20088;-71
2023/04/05 09:00:55;;;;;;;6.88;2.47;;;;;;;;;;4992536;28;20497;-71
2023/04/05 09:03:22;;;;;;;3.35;1.55;;;;;;;;;;4992508;28;20030;-70
2023/04/05 09:05:52;;;;;;;2.65;1.50;;;;;;;;;;4993010;28;20420;-69
2023/04/05 09:08:20;;;;;;;2.05;1.50;;;;;;;;;;4993105;28;20035;-69
2023/04/05 09:10:50;;;;;;;2.67;1.50;;;;;;;;;;4992702;28;20073;-70
2023/04/05 09:13:16;;;;;;;2.40;1.30;;;;;;;;;;4992858;28;20030;-70
2023/04/05 09:15:42;;;;;;;3.97;1.50;;;;;;;;;;4989401;28;20481;-70
2023/04/05 09:18:08;;;;;;;9.30;2.03;;;;;;;;;;4991413;28;20046;-71
2023/04/05 09:20:34;;;;;;;5.45;1.33;;;;;;;;;;4991886;28;20030;-70
2023/04/05 09:23:00;;;;;;;4.03;1.67;;;;;;;;;;4982871;28;20046;-70
2023/04/05 09:25:38;;;;;;;4.28;1.58;;;;;;;;;;4991846;28;20034;-71
2023/04/05 09:28:07;;;;;;;2.47;1.60;;;;;;;;;;4990214;28;20030;-69
2023/04/05 09:30:35;;;;;;;2.78;1.40;;;;;;;;;;4989598;28;20030;-70
2023/04/05 09:33:06;;;;;;;4.03;1.30;;;;;;;;;;4986727;28;20060;-70
2023/04/05 09:35:35;;;;;;;3.40;1.30;;;;;;;;;;4991120;28;20042;-70
2023/04/05 09:38:02;;;;;;;6.47;2.10;;;;;;;;;;4992670;28;20480;-71
2023/04/05 09:40:50;;;;;;;1.85;1.30;;;;;;;;;;4988374;28;20046;-70
2023/04/05 09:43:43;;;;;;;4.13;1.30;;;;;;;;;;4990259;28;20057;-69
2023/04/05 09:46:36;;;;;;;2.25;1.27;;;;;;;;;;5007211;28;20038;-70
2023/04/05 09:49:02;;;;;;;7.72;2.00;;;;;;;;;;4971759;28;20494;-69
2023/04/05 09:51:35;;;;;;;3.33;1.60;;;;;;;;;;4972305;28;20015;-69
2023/04/05 09:54:07;;;;;;;3.33;1.33;;;;;;;;;;4984371;28;20038;-69
2023/04/05 09:56:35;;;;;;;8.98;2.10;;;;;;;;;;4991869;28;20034;-70
2023/04/05 09:59:11;;;;;;;3.00;1.45;;;;;;;;;;4996452;28;20125;-70
2023/04/05 10:01:41;;;;;;;10.88;1.70;;;;;;;;;;4989690;28;20416;-70
2023/04/05 10:04:09;;;;;;;3.33;1.45;;;;;;;;;;4994669;28;20030;-69
2023/04/05 10:06:39;;;;;;;2.40;1.17;;;;;;;;;;4996366;28;20030;-70
2023/04/05 10:09:07;;;;;;;6.22;1.50;;;;;;;;;;4998717;28;20393;-70
2023/04/05 10:11:35;;;;;;;2.70;1.20;;;;;;;;;;4998800;28;20147;-69
2023/04/05 10:14:03;;;;;;;4.22;1.40;;;;;;;;;;4999171;28;20029;-69
2023/04/05 10:16:31;;;;;;;4.45;2.05;;;;;;;;;;4990439;28;20366;-69
2023/04/05 10:18:58;;;;;;;2.28;1.23;;;;;;;;;;5006671;28;20125;-69
2023/04/05 10:21:30;;;;;;;5.35;1.58;;;;;;;;;;4993912;28;20401;-70
2023/04/05 10:24:19;;;;;;;6.25;1.77;;;;;;;;;;4994171;28;20035;-71
2023/04/05 10:26:59;;;;;;;2.20;1.48;;;;;;;;;;4990859;28;20066;-69
2023/04/05 10:29:37;;;;;;;4.78;1.50;;;;;;;;;;4994731;28;20677;-70
2023/04/05 10:32:19;;;;;;;8.60;2.33;;;;;;;;;;4989941;28;20486;-70
2023/04/05 10:34:54;;;;;;;6.20;2.08;;;;;;;;;;4995056;28;20121;-70
2023/04/05 10:37:35;;;;;;;5.07;2.17;;;;;;;;;;4994359;28;20400;-72
2023/04/05 10:40:03;;;;;;;2.53;1.33;;;;;;;;;;4986056;28;20054;-70
2023/04/05 10:42:45;;;;;;;2.40;1.65;;;;;;;;;;4989474;28;20041;-70
2023/04/05 10:45:14;;;;;;;3.55;1.40;;;;;;;;;;4997407;28;20034;-70
2023/04/05 10:48:24;;;;;;;2.45;1.35;;;;;;;;;;4996630;28;20022;-70
2023/04/05 10:50:49;;;;;;;4.57;1.60;;;;;;;;;;4988990;28;20113;-70
2023/04/05 10:53:16;;;;;;;4.50;1.30;;;;;;;;;;4990040;28;20408;-69
2023/04/05 10:55:44;;;;;;;2.30;1.73;;;;;;;;;;4991847;28;20026;-69
2023/04/05 10:58:12;;;;;;;3.72;1.60;;;;;;;;;;4988093;28;20030;-69
2023/04/05 11:00:38;;;;;;;2.30;1.40;;;;;;;;;;5003964;28;20515;-69
2023/04/05 11:03:04;;;;;;;8.63;2.42;;;;;;;;;;4990276;28;20022;-69
2023/04/05 11:05:36;;;;;;;7.28;3.10;;;;;;;;;;4990909;28;20053;-69
2023/04/05 11:08:07;;;;;;;4.07;1.60;;;;;;;;;;4990884;28;20108;-70
2023/04/05 11:10:36;;;;;;;9.57;1.65;;;;;;;;;;4989693;28;20065;-70
2023/04/05 11:13:04;;;;;;;4.88;1.30;;;;;;;;;;4989784;28;20030;-70
2023/04/05 11:15:33;;;;;;;4.50;1.55;;;;;;;;;;4989635;28;20109;-69
2023/04/05 11:18:15;;;;;;;4.70;1.63;;;;;;;;;;4990508;28;20061;-70
2023/04/05 11:20:50;;;;;;;3.05;1.48;;;;;;;;;;4990036;28;20041;-69
2023/04/05 11:23:21;;;;;;;3.40;1.70;;;;;;;;;;4990215;28;20080;-70
2023/04/05 11:25:53;;;;;;;2.70;1.50;;;;;;;;;;4990009;28;20472;-70
2023/04/05 11:28:30;;;;;;;3.80;1.60;;;;;;;;;;4982987;28;20061;-69
2023/04/05 11:30:57;;;;;;;3.47;1.40;;;;;;;;;;4989689;28;20034;-71
2023/04/05 11:33:41;;;;;;;3.28;1.80;;;;;;;;;;4990798;28;20038;-71
2023/04/05 11:36:08;;;;;;;4.93;2.13;;;;;;;;;;4989646;28;20097;-69
2023/04/05 11:38:34;;;;;;;2.88;1.60;;;;;;;;;;4990162;28;20030;-70
2023/04/05 11:41:19;;;;;;;3.50;1.77;;;;;;;;;;4992232;28;20105;-71
2023/04/05 11:43:46;;;;;;;5.18;1.67;;;;;;;;;;4994770;28;20093;-70
2023/04/05 11:46:15;;;;;;;6.03;2.67;;;;;;;;;;4995132;28;20030;-69
2023/04/05 11:48:41;;;;;;;6.10;2.03;;;;;;;;;;4995009;28;20116;-69
2023/04/05 11:51:09;;;;;;;5.70;1.70;;;;;;;;;;4994670;28;20581;-69
2023/04/05 11:53:36;;;;;;;8.98;3.63;;;;;;;;;;4995341;28;20057;-70
2023/04/05 11:56:12;;;;;;;4.18;1.50;;;;;;;;;;4994869;28;20034;-69
2023/04/05 11:58:38;;;;;;;5.70;1.70;;;;;;;;;;4994613;28;20081;-69
2023/04/05 12:01:07;;;;;;;4.93;1.80;;;;;;;;;;4993915;28;20401;-70
2023/04/05 12:03:34;;;;;;;2.65;1.52;;;;;;;;;;4994748;28;20046;-70
2023/04/05 12:06:04;;;;;;;4.43;1.50;;;;;;;;;;4994825;28;20030;-71
2023/04/05 12:08:56;;;;;;;2.33;1.35;;;;;;;;;;4994383;28;20035;-69
2023/04/05 12:11:23;;;;;;;2.17;1.35;;;;;;;;;;4994380;28;20054;-68
2023/04/05 12:13:57;;;;;;;4.45;1.60;;;;;;;;;;4994786;28;20069;-69
2023/04/05 12:16:24;;;;;;;3.50;1.88;;;;;;;;;;5009067;28;20057;-69
2023/04/05 12:18:57;;;;;;;4.78;1.80;;;;;;;;;;4994545;28;20028;-70
2023/04/05 12:21:25;;;;;;;4.45;1.38;;;;;;;;;;4994209;28;20042;-71
2023/04/05 12:23:51;;;;;;;5.82;1.65;;;;;;;;;;4993738;28;20030;-69
2023/04/05 12:26:18;;;;;;;7.30;1.60;;;;;;;;;;4994608;28;20129;-69
2023/04/05 12:28:57;;;;;;;3.63;1.60;;;;;;;;;;4992877;28;20033;-70
2023/04/05 12:31:42;;;;;;;3.75;1.75;;;;;;;;;;4994578;28;20109;-69
2023/04/05 12:34:09;;;;;;;5.60;1.50;;;;;;;;;;4994061;28;20045;-70
2023/04/05 12:36:35;;;;;;;2.17;1.10;;;;;;;;;;4992430;28;20030;-69
2023/04/05 12:39:06;;;;;;;4.95;1.58;;;;;;;;;;4993671;28;20039;-69
2023/04/05 12:41:32;;;;;;;2.85;1.55;;;;;;;;;;4988369;28;20034;-69
2023/04/05 12:44:04;;;;;;;5.00;1.40;;;;;;;;;;4993106;28;20061;-69
2023/04/05 12:46:44;;;;;;;3.65;1.77;;;;;;;;;;4992651;28;20038;-70
2023/04/05 12:49:14;;;;;;;5.90;2.10;;;;;;;;;;4992870;28;20030;-69
2023/04/05 12:51:45;;;;;;;4.05;1.90;;;;;;;;;;4994043;28;20034;-70
2023/04/05 12:54:14;;;;;;;3.85;1.70;;;;;;;;;;4989811;28;20034;-69
2023/04/05 12:56:43;;;;;;;1.95;1.20;;;;;;;;;;4994225;28;20034;-69
2023/04/05 12:59:08;;;;;;;1.65;1.17;;;;;;;;;;4994283;28;20472;-69
2023/04/05 13:01:34;;;;;;;7.13;2.05;;;;;;;;;;4992342;28;20046;-69
2023/04/05 13:04:00;;;;;;;2.88;1.30;;;;;;;;;;4993975;28;20490;-70
2023/04/05 13:06:27;;;;;;;3.00;1.40;;;;;;;;;;4993251;28;20034;-70
2023/04/05 13:08:57;;;;;;;8.50;1.38;;;;;;;;;;4994433;28;20030;-69
2023/04/05 13:11:23;;;;;;;7.93;1.70;;;;;;;;;;4990825;28;20057;-69
2023/04/05 13:13:49;;;;;;;3.67;1.45;;;;;;;;;;4992760;28;20034;-70
2023/04/05 13:16:15;;;;;;;3.78;1.50;;;;;;;;;;4992714;28;20306;-69
2023/04/05 13:18:41;;;;;;;5.53;2.05;;;;;;;;;;4993177;28;20034;-69
2023/04/05 13:21:08;;;;;;;4.07;1.45;;;;;;;;;;4992352;28;20081;-70
2023/04/05 13:23:35;;;;;;;4.60;1.55;;;;;;;;;;4992805;28;20501;-69
2023/04/05 13:26:01;;;;;;;2.97;1.52;;;;;;;;;;4991839;28;20439;-70
2023/04/05 13:28:28;;;;;;;2.30;1.35;;;;;;;;;;4991880;28;20042;-70
2023/04/05 13:30:54;;;;;;;5.43;1.40;;;;;;;;;;4992371;28;20120;-70
2023/04/05 13:33:20;;;;;;;10.05;2.03;;;;;;;;;;4992272;28;20113;-70
2023/04/05 13:35:46;;;;;;;12.20;2.20;;;;;;;;;;4992526;28;20050;-69
2023/04/05 13:38:11;;;;;;;3.80;1.65;;;;;;;;;;4992822;28;20057;-68
2023/04/05 13:40:37;;;;;;;2.10;1.17;;;;;;;;;;5006329;28;20483;-68
2023/04/05 13:43:04;;;;;;;2.88;1.70;;;;;;;;;;4992708;28;20331;-68
2023/04/05 13:45:33;;;;;;;3.50;1.60;;;;;;;;;;4992805;28;20376;-70
2023/04/05 13:48:01;;;;;;;4.32;1.63;;;;;;;;;;4992297;28;20038;-71
2023/04/05 13:50:27;;;;;;;3.95;1.50;;;;;;;;;;4990495;28;20041;-71
2023/04/05 13:52:52;;;;;;;3.03;1.38;;;;;;;;;;4992069;28;20068;-70
2023/04/05 13:55:18;;;;;;;2.60;1.20;;;;;;;;;;4990534;28;20037;-69
2023/04/05 13:57:44;;;;;;;2.55;1.30;;;;;;;;;;4992553;28;20030;-69
2023/04/05 14:00:11;;;;;;;2.88;1.65;;;;;;;;;;4989584;28;20401;-70
2023/04/05 14:02:40;;;;;;;5.03;2.08;;;;;;;;;;4992125;28;20038;-71
2023/04/05 14:05:06;;;;;;;4.43;1.30;;;;;;;;;;4991055;28;20037;-70
2023/04/05 14:07:32;;;;;;;2.90;1.45;;;;;;;;;;4991275;28;20313;-69
2023/04/05 14:09:58;;;;;;;2.30;1.40;;;;;;;;;;4990548;28;20032;-70
2023/04/05 14:12:23;;;;;;;10.25;1.80;;;;;;;;;;4991704;28;20366;-71
2023/04/05 14:14:50;;;;;;;3.03;1.30;;;;;;;;;;4991792;28;20057;-71
2023/04/05 14:17:16;;;;;;;3.45;1.48;;;;;;;;;;4989013;28;20026;-69
2023/04/05 14:19:42;;;;;;;6.68;2.20;;;;;;;;;;4988686;28;20069;-68
2023/04/05 14:22:10;;;;;;;8.80;2.10;;;;;;;;;;4988769;28;20067;-68
2023/04/05 14:24:35;;;;;;;4.47;1.23;;;;;;;;;;4981619;28;20038;-70
2023/04/05 14:27:01;;;;;;;2.63;1.23;;;;;;;;;;4988356;28;20083;-70
2023/04/05 14:29:27;;;;;;;3.30;2.10;;;;;;;;;;4984114;28;20042;-69
2023/04/05 14:31:55;;;;;;;4.45;2.47;;;;;;;;;;4984712;28;20566;-69
2023/04/05 14:34:20;;;;;;;6.15;2.70;;;;;;;;;;4983336;28;20026;-69
2023/04/05 14:36:46;;;;;;;4.90;2.92;;;;;;;;;;4983148;28;20088;-70
2023/04/05 14:39:12;;;;;;;3.67;2.63;;;;;;;;;;4986077;28;20424;-70
2023/04/05 14:41:38;;;;;;;3.58;2.60;;;;;;;;;;4983752;28;20077;-69
2023/04/05 14:44:05;;;;;;;4.80;2.80;;;;;;;;;;4984464;28;20500;-69
2023/04/05 14:46:31;;;;;;;4.25;2.50;;;;;;;;;;4983772;28;20555;-69
2023/04/05 14:48:57;;;;;;;7.00;3.28;;;;;;;;;;4984286;28;20427;-69
2023/04/05 14:51:22;;;;;;;7.13;3.50;;;;;;;;;;4984682;28;20022;-69